Time,TemperatureF,DewpointF,PressureIn,WindDirection,WindDirectionDegrees,WindSpeedMPH,WindSpeedGustMPH,Humidity,HourlyPrecipIn,Conditions,Clouds,dailyrainin,SolarRadiationWatts/m^2,SoftwareType,DateUTC
2013-02-05 00:03:00,37.0,21.0,29.58,SW,214,4.0,10.0,52,0.00,,,0.00,0.000000,,2013-02-05 05:03:00,
2013-02-05 00:12:00,37.0,21.0,29.58,SW,214,4.0,10.0,52,0.00,,,0.00,0.000000,,2013-02-05 05:12:00,
2013-02-05 00:42:00,38.0,23.0,29.57,SE,145,4.0,7.0,55,0.00,,,0.00,0.000000,,2013-02-05 05:42:00,
2013-02-05 00:52:00,38.0,23.0,29.57,SE,145,4.0,7.0,55,0.00,,,0.00,0.000000,,2013-02-05 05:52:00,
2013-02-05 01:02:00,38.0,23.0,29.57,SE,145,4.0,7.0,55,0.00,,,0.00,0.000000,,2013-02-05 06:02:00,
2013-02-05 01:11:00,38.0,23.0,29.57,SE,145,4.0,7.0,55,0.00,,,0.00,0.000000,,2013-02-05 06:11:00,
2013-02-05 01:32:00,39.0,24.0,29.54,SW,218,4.0,7.0,54,0.00,,,0.00,0.000000,,2013-02-05 06:32:00,
2013-02-05 01:42:00,39.0,24.0,29.54,SW,218,4.0,7.0,54,0.00,,,0.00,0.000000,,2013-02-05 06:42:00,
2013-02-05 01:52:00,39.0,24.0,29.54,SW,218,4.0,7.0,54,0.00,,,0.00,0.000000,,2013-02-05 06:52:00,
2013-02-05 02:01:00,39.0,24.0,29.54,SW,218,4.0,7.0,54,0.00,,,0.00,0.000000,,2013-02-05 07:01:00,
2013-02-05 02:11:00,39.0,24.0,29.54,SW,218,4.0,7.0,54,0.00,,,0.00,0.000000,,2013-02-05 07:11:00,
2013-02-05 02:32:00,37.0,24.0,29.53,SW,216,3.0,7.0,58,0.00,,,0.00,0.000000,,2013-02-05 07:32:00,
2013-02-05 02:42:00,37.0,24.0,29.53,SW,216,3.0,7.0,58,0.00,,,0.00,0.000000,,2013-02-05 07:42:00,
2013-02-05 02:52:00,37.0,24.0,29.53,SW,216,3.0,7.0,58,0.00,,,0.00,0.000000,,2013-02-05 07:52:00,
2013-02-05 03:01:00,37.0,24.0,29.53,SW,216,3.0,7.0,58,0.00,,,0.00,0.000000,,2013-02-05 08:01:00,
2013-02-05 03:11:00,37.0,24.0,29.53,SW,216,3.0,7.0,58,0.00,,,0.00,0.000000,,2013-02-05 08:11:00,
2013-02-05 03:42:00,37.0,23.0,29.52,WSW,242,3.0,7.0,57,0.00,,,0.00,0.000000,,2013-02-05 08:42:00,
2013-02-05 03:52:00,37.0,23.0,29.52,WSW,242,3.0,7.0,57,0.00,,,0.00,0.000000,,2013-02-05 08:52:00,
2013-02-05 04:02:00,37.0,23.0,29.52,WSW,242,3.0,7.0,57,0.00,,,0.00,0.000000,,2013-02-05 09:02:00,
2013-02-05 04:11:00,37.0,23.0,29.52,WSW,242,3.0,7.0,57,0.00,,,0.00,0.000000,,2013-02-05 09:11:00,
2013-02-05 04:42:00,38.0,26.0,29.50,SW,221,3.0,6.0,61,0.00,,,0.00,0.000000,,2013-02-05 09:42:00,
2013-02-05 04:52:00,38.0,26.0,29.50,SW,221,3.0,6.0,61,0.00,,,0.00,0.000000,,2013-02-05 09:52:00,
2013-02-05 05:02:00,38.0,26.0,29.50,SW,221,3.0,6.0,61,0.00,,,0.00,0.000000,,2013-02-05 10:02:00,
2013-02-05 05:11:00,38.0,26.0,29.50,SW,221,3.0,6.0,61,0.00,,,0.00,0.000000,,2013-02-05 10:11:00,
2013-02-05 05:32:00,38.0,26.0,29.50,SW,216,3.0,7.0,62,0.00,,,0.00,0.000000,,2013-02-05 10:32:00,
2013-02-05 05:42:00,38.0,26.0,29.50,SW,216,3.0,7.0,62,0.00,,,0.00,0.000000,,2013-02-05 10:42:00,
2013-02-05 05:52:00,38.0,26.0,29.50,SW,216,3.0,7.0,62,0.00,,,0.00,0.000000,,2013-02-05 10:52:00,
2013-02-05 06:01:00,38.0,26.0,29.50,SW,216,3.0,7.0,62,0.00,,,0.00,0.000000,,2013-02-05 11:01:00,
2013-02-05 06:11:00,38.0,26.0,29.50,SW,216,3.0,7.0,62,0.00,,,0.00,0.000000,,2013-02-05 11:11:00,
2013-02-05 06:32:00,36.0,25.0,29.52,SW,235,3.0,6.0,63,0.00,,,0.00,0.000000,,2013-02-05 11:32:00,
2013-02-05 06:42:00,36.0,25.0,29.52,SW,235,3.0,6.0,63,0.00,,,0.00,0.000000,,2013-02-05 11:42:00,
2013-02-05 06:52:00,36.0,25.0,29.52,SW,235,3.0,6.0,63,0.00,,,0.00,0.000000,,2013-02-05 11:52:00,
2013-02-05 07:02:00,36.0,25.0,29.52,SW,235,3.0,6.0,63,0.00,,,0.00,0.000000,,2013-02-05 12:02:00,
2013-02-05 07:12:00,36.0,25.0,29.52,SW,235,3.0,6.0,63,0.00,,,0.00,0.000000,,2013-02-05 12:12:00,
2013-02-05 07:32:00,36.0,25.0,29.52,SW,222,4.0,8.0,63,0.00,,,0.00,0.000000,,2013-02-05 12:32:00,
2013-02-05 07:42:00,36.0,25.0,29.52,SW,222,4.0,8.0,63,0.00,,,0.00,0.000000,,2013-02-05 12:42:00,
2013-02-05 07:52:00,36.0,25.0,29.52,SW,222,4.0,8.0,63,0.00,,,0.00,0.000000,,2013-02-05 12:52:00,
2013-02-05 08:02:00,36.0,25.0,29.52,SW,222,4.0,8.0,63,0.00,,,0.00,0.000000,,2013-02-05 13:02:00,
2013-02-05 08:12:00,36.0,25.0,29.52,SW,222,4.0,8.0,63,0.00,,,0.00,0.000000,,2013-02-05 13:12:00,
2013-02-05 08:42:00,39.0,26.0,29.54,SW,227,4.0,10.0,60,0.00,,,0.00,46.000000,,2013-02-05 13:42:00,
2013-02-05 08:52:00,39.0,26.0,29.54,SW,227,4.0,10.0,60,0.00,,,0.00,46.000000,,2013-02-05 13:52:00,
2013-02-05 09:01:00,39.0,26.0,29.54,SW,227,4.0,10.0,60,0.00,,,0.00,46.000000,,2013-02-05 14:01:00,
2013-02-05 09:12:00,39.0,26.0,29.54,SW,227,4.0,10.0,60,0.00,,,0.00,46.000000,,2013-02-05 14:12:00,
2013-02-05 09:42:00,45.0,28.0,29.54,SW,227,5.0,11.0,52,0.00,,,0.00,173.000000,,2013-02-05 14:42:00,
2013-02-05 09:52:00,45.0,28.0,29.54,SW,227,5.0,11.0,52,0.00,,,0.00,173.000000,,2013-02-05 14:52:00,
2013-02-05 10:02:00,45.0,28.0,29.54,SW,227,5.0,11.0,52,0.00,,,0.00,173.000000,,2013-02-05 15:02:00,
2013-02-05 10:11:00,45.0,28.0,29.54,SW,227,5.0,11.0,52,0.00,,,0.00,173.000000,,2013-02-05 15:11:00,
2013-02-05 10:32:00,47.0,28.0,29.55,WSW,239,6.0,14.0,48,0.00,,,0.00,188.000000,,2013-02-05 15:32:00,
2013-02-05 10:42:00,47.0,28.0,29.55,WSW,239,6.0,14.0,48,0.00,,,0.00,188.000000,,2013-02-05 15:42:00,
2013-02-05 10:52:00,47.0,28.0,29.55,WSW,239,6.0,14.0,48,0.00,,,0.00,188.000000,,2013-02-05 15:52:00,
2013-02-05 11:01:00,47.0,28.0,29.55,WSW,239,6.0,14.0,48,0.00,,,0.00,188.000000,,2013-02-05 16:01:00,
2013-02-05 11:12:00,47.0,28.0,29.55,WSW,239,6.0,14.0,48,0.00,,,0.00,188.000000,,2013-02-05 16:12:00,
2013-02-05 11:33:00,49.0,30.0,29.54,WSW,239,4.0,15.0,47,0.00,,,-99.99,166.000000,,2013-02-05 16:33:00,
2013-02-05 11:42:00,49.0,30.0,29.54,WSW,239,4.0,15.0,47,0.00,,,-99.99,166.000000,,2013-02-05 16:42:00,
2013-02-05 11:52:00,49.0,30.0,29.54,WSW,239,4.0,15.0,47,0.00,,,-99.99,166.000000,,2013-02-05 16:52:00,
2013-02-05 12:01:00,49.0,30.0,29.54,WSW,239,4.0,15.0,47,0.00,,,-99.99,166.000000,,2013-02-05 17:01:00,
2013-02-05 12:12:00,49.0,30.0,29.54,WSW,239,4.0,15.0,47,0.00,,,-99.99,166.000000,,2013-02-05 17:12:00,
2013-02-05 12:33:00,51.0,29.0,29.52,WSW,244,4.0,10.0,43,0.00,,,0.00,188.000000,,2013-02-05 17:33:00,
2013-02-05 12:42:00,51.0,29.0,29.52,WSW,244,4.0,10.0,43,0.00,,,0.00,188.000000,,2013-02-05 17:42:00,
2013-02-05 12:52:00,51.0,29.0,29.52,WSW,244,4.0,10.0,43,0.00,,,0.00,188.000000,,2013-02-05 17:52:00,
2013-02-05 13:02:00,51.0,29.0,29.52,WSW,244,4.0,10.0,43,0.00,,,0.00,188.000000,,2013-02-05 18:02:00,
2013-02-05 13:11:00,51.0,29.0,29.52,WSW,244,4.0,10.0,43,0.00,,,0.00,188.000000,,2013-02-05 18:11:00,
2013-02-05 13:32:00,57.0,30.0,29.49,ESE,123,6.0,13.0,36,0.00,,,0.00,286.000000,,2013-02-05 18:32:00,
2013-02-05 13:42:00,57.0,30.0,29.49,ESE,123,6.0,13.0,36,0.00,,,0.00,286.000000,,2013-02-05 18:42:00,
2013-02-05 13:52:00,57.0,30.0,29.49,ESE,123,6.0,13.0,36,0.00,,,0.00,286.000000,,2013-02-05 18:52:00,
2013-02-05 14:02:00,57.0,30.0,29.49,ESE,123,6.0,13.0,36,0.00,,,0.00,286.000000,,2013-02-05 19:02:00,
2013-02-05 14:11:00,57.0,30.0,29.49,ESE,123,6.0,13.0,36,0.00,,,0.00,286.000000,,2013-02-05 19:11:00,
2013-02-05 14:42:00,58.0,28.0,29.47,SW,224,4.0,12.0,31,0.00,,,0.00,500.000000,,2013-02-05 19:42:00,
2013-02-05 14:52:00,58.0,28.0,29.47,SW,224,4.0,12.0,31,0.00,,,0.00,500.000000,,2013-02-05 19:52:00,
2013-02-05 15:02:00,58.0,28.0,29.47,SW,224,4.0,12.0,31,0.00,,,0.00,500.000000,,2013-02-05 20:02:00,
2013-02-05 15:11:00,58.0,28.0,29.47,SW,224,4.0,12.0,31,0.00,,,0.00,500.000000,,2013-02-05 20:11:00,
2013-02-05 15:32:00,61.0,29.0,29.46,WSW,249,7.0,14.0,29,0.00,,,0.00,464.000000,,2013-02-05 20:32:00,
2013-02-05 15:42:00,61.0,29.0,29.46,WSW,249,7.0,14.0,29,0.00,,,0.00,464.000000,,2013-02-05 20:42:00,
2013-02-05 15:52:00,61.0,29.0,29.46,WSW,249,7.0,14.0,29,0.00,,,0.00,464.000000,,2013-02-05 20:52:00,
2013-02-05 16:02:00,61.0,29.0,29.46,WSW,249,7.0,14.0,29,0.00,,,0.00,464.000000,,2013-02-05 21:02:00,
2013-02-05 16:11:00,61.0,29.0,29.46,WSW,249,7.0,14.0,29,0.00,,,0.00,464.000000,,2013-02-05 21:11:00,
2013-02-05 16:42:00,61.0,29.0,29.47,West,279,6.0,14.0,29,0.00,,,0.00,330.000000,,2013-02-05 21:42:00,
2013-02-05 16:52:00,61.0,29.0,29.47,West,279,6.0,14.0,29,0.00,,,0.00,330.000000,,2013-02-05 21:52:00,
2013-02-05 17:02:00,61.0,29.0,29.47,West,279,6.0,14.0,29,0.00,,,0.00,330.000000,,2013-02-05 22:02:00,
2013-02-05 17:11:00,61.0,29.0,29.47,West,279,6.0,14.0,29,0.00,,,0.00,330.000000,,2013-02-05 22:11:00,
2013-02-05 17:42:00,58.0,28.0,29.47,West,270,4.0,15.0,32,0.00,,,0.00,165.000000,,2013-02-05 22:42:00,
2013-02-05 17:52:00,58.0,28.0,29.47,West,270,4.0,15.0,32,0.00,,,0.00,165.000000,,2013-02-05 22:52:00,
2013-02-05 18:02:00,58.0,28.0,29.47,West,270,4.0,15.0,32,0.00,,,0.00,165.000000,,2013-02-05 23:02:00,
2013-02-05 18:11:00,58.0,28.0,29.47,West,270,4.0,15.0,32,0.00,,,0.00,165.000000,,2013-02-05 23:11:00,
2013-02-05 18:33:00,50.0,31.0,29.47,WNW,298,1.0,7.0,47,0.00,,,0.00,12.000000,,2013-02-05 23:33:00,
2013-02-05 18:42:00,50.0,31.0,29.47,WNW,298,1.0,7.0,47,0.00,,,0.00,12.000000,,2013-02-05 23:42:00,
2013-02-05 18:53:00,50.0,31.0,29.47,WNW,298,1.0,7.0,47,0.00,,,0.00,12.000000,,2013-02-05 23:53:00,
2013-02-05 19:02:00,50.0,31.0,29.47,WNW,298,1.0,7.0,47,0.00,,,0.00,12.000000,,2013-02-06 00:02:00,
2013-02-05 19:12:00,50.0,31.0,29.47,WNW,298,1.0,7.0,47,0.00,,,0.00,12.000000,,2013-02-06 00:12:00,
2013-02-05 19:32:00,47.0,31.0,29.49,WNW,284,2.0,7.0,53,0.00,,,0.00,0.000000,,2013-02-06 00:32:00,
2013-02-05 19:42:00,47.0,31.0,29.49,WNW,284,2.0,7.0,53,0.00,,,0.00,0.000000,,2013-02-06 00:42:00,
2013-02-05 19:52:00,47.0,31.0,29.49,WNW,284,2.0,7.0,53,0.00,,,0.00,0.000000,,2013-02-06 00:52:00,
2013-02-05 20:02:00,47.0,31.0,29.49,WNW,284,2.0,7.0,53,0.00,,,0.00,0.000000,,2013-02-06 01:02:00,
2013-02-05 20:12:00,47.0,31.0,29.49,WNW,284,2.0,7.0,53,0.00,,,0.00,0.000000,,2013-02-06 01:12:00,
2013-02-05 20:33:00,46.0,30.0,29.51,NNW,336,3.0,9.0,54,0.00,,,0.00,0.000000,,2013-02-06 01:33:00,
2013-02-05 20:42:00,46.0,30.0,29.51,NNW,336,3.0,9.0,54,0.00,,,0.00,0.000000,,2013-02-06 01:42:00,
2013-02-05 20:53:00,46.0,30.0,29.51,NNW,336,3.0,9.0,54,0.00,,,0.00,0.000000,,2013-02-06 01:53:00,
2013-02-05 21:02:00,46.0,30.0,29.51,NNW,336,3.0,9.0,54,0.00,,,0.00,0.000000,,2013-02-06 02:02:00,
2013-02-05 21:12:00,46.0,30.0,29.51,NNW,336,3.0,9.0,54,0.00,,,0.00,0.000000,,2013-02-06 02:12:00,
2013-02-05 21:42:00,43.0,29.0,29.52,NNE,18,63.0,111.0,57,0.00,,,0.00,0.000000,,2013-02-06 02:42:00,
2013-02-05 21:53:00,43.0,29.0,29.52,NNE,18,63.0,111.0,57,0.00,,,0.00,0.000000,,2013-02-06 02:53:00,
2013-02-05 22:03:00,43.0,29.0,29.52,NNE,18,63.0,111.0,57,0.00,,,0.00,0.000000,,2013-02-06 03:03:00,
2013-02-05 22:12:00,43.0,29.0,29.52,NNE,18,63.0,111.0,57,0.00,,,0.00,0.000000,,2013-02-06 03:12:00,
2013-02-05 22:33:00,42.0,30.0,29.54,NE,34,56.0,56.0,62,0.00,,,0.00,0.000000,,2013-02-06 03:33:00,
2013-02-05 22:43:00,42.0,30.0,29.54,NE,34,56.0,56.0,62,0.00,,,0.00,0.000000,,2013-02-06 03:43:00,
2013-02-05 22:53:00,42.0,30.0,29.54,NE,34,56.0,56.0,62,0.00,,,0.00,0.000000,,2013-02-06 03:53:00,
2013-02-05 23:02:00,42.0,30.0,29.54,NE,34,56.0,56.0,62,0.00,,,0.00,0.000000,,2013-02-06 04:02:00,
2013-02-05 23:11:00,42.0,30.0,29.54,NE,34,56.0,56.0,62,0.00,,,0.00,0.000000,,2013-02-06 04:11:00,
2013-02-05 23:42:00,39.0,30.0,29.54,East,101,1.0,56.0,71,0.00,,,0.00,0.000000,,2013-02-06 04:42:00,
2013-02-05 23:52:00,39.0,30.0,29.54,East,101,1.0,56.0,71,0.00,,,0.00,0.000000,,2013-02-06 04:52:00,